Time;durP1;ratioP1;P1;durP2;ratioP2;P2;SDS_P1;SDS_P2;PMS_P1;PMS_P2;Temp;Humidity;BMP_temperature;BMP_pressure;BME280_temperature;BME280_humidity;BME280_pressure;Samples;Min_cycle;Max_cycle;Signal;HPM_P1;HPM_P2
2023/06/16 00:02:03;;;;;;;10.73;5.00;;;;;;;;;;5020430;28;20037;-70
2023/06/16 00:04:31;;;;;;;9.40;4.80;;;;;;;;;;5019863;28;20045;-70
2023/06/16 00:07:01;;;;;;;9.20;5.20;;;;;;;;;;5021532;28;20036;-70
2023/06/16 00:09:29;;;;;;;9.65;4.57;;;;;;;;;;5022869;28;20051;-71
2023/06/16 00:11:56;;;;;;;8.80;5.07;;;;;;;;;;5016464;28;20494;-71
2023/06/16 00:14:28;;;;;;;9.37;3.87;;;;;;;;;;5017455;28;20502;-71
2023/06/16 00:16:57;;;;;;;8.13;4.70;;;;;;;;;;5023945;28;20044;-70
2023/06/16 00:19:27;;;;;;;9.73;5.40;;;;;;;;;;5021519;28;20052;-71
2023/06/16 00:21:59;;;;;;;9.80;4.88;;;;;;;;;;5023282;28;20491;-70
2023/06/16 00:24:27;;;;;;;8.95;4.65;;;;;;;;;;5015741;28;20068;-70
2023/06/16 00:26:55;;;;;;;10.33;4.60;;;;;;;;;;5022329;28;20720;-71
2023/06/16 00:29:23;;;;;;;9.57;4.93;;;;;;;;;;5012592;28;20280;-71
2023/06/16 00:31:51;;;;;;;11.60;4.65;;;;;;;;;;5010077;28;20052;-70
2023/06/16 00:34:20;;;;;;;9.63;5.07;;;;;;;;;;5025144;28;20049;-71
2023/06/16 00:36:48;;;;;;;10.48;4.43;;;;;;;;;;5011908;28;20056;-69
2023/06/16 00:39:16;;;;;;;9.37;4.90;;;;;;;;;;5026760;28;20040;-70
2023/06/16 00:41:43;;;;;;;11.07;4.93;;;;;;;;;;5011151;28;20034;-71
2023/06/16 00:44:11;;;;;;;8.07;4.63;;;;;;;;;;5018151;28;20041;-70
2023/06/16 00:46:39;;;;;;;8.07;4.63;;;;;;;;;;5028279;28;20033;-70
2023/06/16 00:49:07;;;;;;;8.70;4.90;;;;;;;;;;5015987;28;20041;-70
2023/06/16 00:51:38;;;;;;;10.23;4.93;;;;;;;;;;5018393;28;20037;-69
2023/06/16 00:54:06;;;;;;;9.25;4.30;;;;;;;;;;5024975;28;20487;-70
2023/06/16 00:56:36;;;;;;;10.63;4.80;;;;;;;;;;5015190;28;20025;-70
2023/06/16 00:59:05;;;;;;;8.50;4.93;;;;;;;;;;5013357;28;20385;-70
2023/06/16 01:01:34;;;;;;;9.40;4.28;;;;;;;;;;5004545;28;20071;-70
2023/06/16 01:04:02;;;;;;;8.67;4.90;;;;;;;;;;4983419;28;20120;-71
2023/06/16 01:06:35;;;;;;;8.52;4.65;;;;;;;;;;5027394;28;20052;-70
2023/06/16 01:09:07;;;;;;;11.40;5.13;;;;;;;;;;5020413;28;20029;-70
2023/06/16 01:11:38;;;;;;;11.98;4.28;;;;;;;;;;5016857;28;20557;-69
2023/06/16 01:14:14;;;;;;;8.48;4.88;;;;;;;;;;5021180;28;20403;-71
2023/06/16 01:16:43;;;;;;;6.60;4.33;;;;;;;;;;5013156;28;20068;-69
2023/06/16 01:19:17;;;;;;;8.25;5.18;;;;;;;;;;5023219;28;20033;-70
2023/06/16 01:21:51;;;;;;;9.10;5.38;;;;;;;;;;5014024;28;20495;-71
2023/06/16 01:24:23;;;;;;;8.40;5.20;;;;;;;;;;5026025;28;20057;-70
2023/06/16 01:26:53;;;;;;;10.95;5.50;;;;;;;;;;5014822;28;20096;-70
2023/06/16 01:29:25;;;;;;;9.00;4.80;;;;;;;;;;5014736;28;20068;-71
2023/06/16 01:31:55;;;;;;;11.13;5.50;;;;;;;;;;5022627;28;20056;-71
2023/06/16 01:34:23;;;;;;;11.18;5.30;;;;;;;;;;5020277;28;20049;-70
2023/06/16 01:36:51;;;;;;;10.55;5.85;;;;;;;;;;5016339;28;20045;-70
2023/06/16 01:39:26;;;;;;;10.65;5.97;;;;;;;;;;5025545;28;20051;-73
2023/06/16 01:41:55;;;;;;;10.67;6.03;;;;;;;;;;5029640;28;20442;-73
2023/06/16 01:44:24;;;;;;;12.05;6.47;;;;;;;;;;5000183;28;20037;-72
2023/06/16 01:46:51;;;;;;;10.15;5.75;;;;;;;;;;5023116;28;20037;-72
2023/06/16 01:49:19;;;;;;;10.88;5.95;;;;;;;;;;5028991;28;20044;-72
2023/06/16 01:51:47;;;;;;;9.77;6.20;;;;;;;;;;5009139;28;20471;-72
2023/06/16 01:54:15;;;;;;;11.40;6.50;;;;;;;;;;4984042;28;20043;-71
2023/06/16 01:56:44;;;;;;;10.73;6.13;;;;;;;;;;5026106;28;20041;-72
2023/06/16 01:59:12;;;;;;;10.43;6.32;;;;;;;;;;5016134;28;20179;-72
2023/06/16 02:01:42;;;;;;;12.60;5.70;;;;;;;;;;5021411;28;20048;-72
2023/06/16 02:04:12;;;;;;;10.82;6.38;;;;;;;;;;5015071;28;20047;-71
2023/06/16 02:06:43;;;;;;;10.33;6.60;;;;;;;;;;5015398;28;20045;-72
2023/06/16 02:09:12;;;;;;;11.68;6.97;;;;;;;;;;5032153;28;20051;-72
2023/06/16 02:11:40;;;;;;;10.30;6.32;;;;;;;;;;5017303;28;20106;-72
2023/06/16 02:14:09;;;;;;;9.60;6.63;;;;;;;;;;5020486;28;20048;-71
2023/06/16 02:16:37;;;;;;;12.25;6.53;;;;;;;;;;5013423;28;20037;-71
2023/06/16 02:19:05;;;;;;;10.33;6.63;;;;;;;;;;5031542;28;20497;-71
2023/06/16 02:21:36;;;;;;;10.80;6.72;;;;;;;;;;5021990;28;20430;-71
2023/06/16 02:24:05;;;;;;;9.23;6.28;;;;;;;;;;5017437;28;20474;-72
2023/06/16 02:26:33;;;;;;;11.55;6.82;;;;;;;;;;5022316;28;20406;-72
2023/06/16 02:29:01;;;;;;;11.05;6.55;;;;;;;;;;5015293;28;20494;-72
2023/06/16 02:31:31;;;;;;;10.20;7.30;;;;;;;;;;5027009;28;20041;-73
2023/06/16 02:33:59;;;;;;;9.48;6.47;;;;;;;;;;5011658;28;20345;-72
2023/06/16 02:36:27;;;;;;;10.68;6.22;;;;;;;;;;5025324;28;20044;-72
2023/06/16 02:38:55;;;;;;;11.80;6.40;;;;;;;;;;5020302;28;20037;-73
2023/06/16 02:41:23;;;;;;;10.13;6.25;;;;;;;;;;5008710;28;20593;-72
2023/06/16 02:43:50;;;;;;;11.83;7.10;;;;;;;;;;5026467;28;20048;-72
2023/06/16 02:46:18;;;;;;;11.50;6.65;;;;;;;;;;5018203;28;20041;-72
2023/06/16 02:48:47;;;;;;;11.25;6.70;;;;;;;;;;5016129;28;20033;-72
2023/06/16 02:51:14;;;;;;;9.65;6.40;;;;;;;;;;5020689;28;20033;-71
2023/06/16 02:53:45;;;;;;;9.75;6.57;;;;;;;;;;5018749;28;20045;-71
2023/06/16 02:56:14;;;;;;;11.23;6.60;;;;;;;;;;5021689;28;20131;-72
2023/06/16 02:58:41;;;;;;;11.10;6.20;;;;;;;;;;5002642;28;20045;-71
2023/06/16 03:01:09;;;;;;;13.10;7.97;;;;;;;;;;5021238;28;20048;-71
2023/06/16 03:03:37;;;;;;;12.45;8.82;;;;;;;;;;5019774;28;20482;-71
2023/06/16 03:06:07;;;;;;;13.63;10.02;;;;;;;;;;5013090;28;20127;-71
2023/06/16 03:08:36;;;;;;;13.70;9.40;;;;;;;;;;5014665;28;20045;-71
2023/06/16 03:11:06;;;;;;;16.52;9.45;;;;;;;;;;5014500;28;20040;-71
2023/06/16 03:13:34;;;;;;;15.55;10.00;;;;;;;;;;5019497;28;20051;-72
2023/06/16 03:16:02;;;;;;;17.08;10.00;;;;;;;;;;5013574;28;20041;-71
2023/06/16 03:18:31;;;;;;;13.85;9.48;;;;;;;;;;5022613;28;20049;-71
2023/06/16 03:21:01;;;;;;;14.93;9.20;;;;;;;;;;5011097;28;20074;-72
2023/06/16 03:23:30;;;;;;;12.68;9.50;;;;;;;;;;5009070;28;20040;-71
2023/06/16 03:25:58;;;;;;;12.55;8.85;;;;;;;;;;5001694;28;20724;-72
2023/06/16 03:28:26;;;;;;;12.52;9.32;;;;;;;;;;5011843;28;20565;-72
2023/06/16 03:30:53;;;;;;;14.80;9.05;;;;;;;;;;5015498;28;21418;-71
2023/06/16 03:33:21;;;;;;;13.47;9.20;;;;;;;;;;5021138;28;20581;-72
2023/06/16 03:35:49;;;;;;;14.15;8.32;;;;;;;;;;5010130;28;20049;-71
2023/06/16 03:38:17;;;;;;;12.13;8.65;;;;;;;;;;5008682;28;20068;-72
2023/06/16 03:40:46;;;;;;;12.70;8.93;;;;;;;;;;5014217;28;20402;-72
2023/06/16 03:43:15;;;;;;;12.65;8.40;;;;;;;;;;5018434;28;20053;-72
2023/06/16 03:45:43;;;;;;;10.83;7.77;;;;;;;;;;5021565;28;20037;-72
2023/06/16 03:48:11;;;;;;;13.25;8.40;;;;;;;;;;5020569;28;20033;-72
2023/06/16 03:50:38;;;;;;;13.43;8.57;;;;;;;;;;4988742;28;20037;-72
2023/06/16 03:53:06;;;;;;;12.35;8.52;;;;;;;;;;5010549;28;20040;-71
2023/06/16 03:55:43;;;;;;;13.35;8.60;;;;;;;;;;5016864;28;20048;-72
2023/06/16 03:58:13;;;;;;;12.80;8.40;;;;;;;;;;5021317;28;20744;-71
2023/06/16 04:00:41;;;;;;;11.90;8.82;;;;;;;;;;5007950;28;20052;-71
2023/06/16 04:03:08;;;;;;;14.25;8.70;;;;;;;;;;5029586;28;20037;-69
2023/06/16 04:05:37;;;;;;;13.57;8.98;;;;;;;;;;4997501;28;20132;-71
2023/06/16 04:08:05;;;;;;;13.93;9.90;;;;;;;;;;5019456;28;20048;-72
2023/06/16 04:10:33;;;;;;;13.70;9.30;;;;;;;;;;5022214;28;20095;-72
2023/06/16 04:13:05;;;;;;;14.02;10.10;;;;;;;;;;5037041;28;20452;-71
2023/06/16 04:15:34;;;;;;;14.65;9.80;;;;;;;;;;5012970;28;20049;-72
2023/06/16 04:18:02;;;;;;;14.20;9.23;;;;;;;;;;5005156;28;20033;-72
2023/06/16 04:20:31;;;;;;;13.15;8.77;;;;;;;;;;5012196;28;20483;-72
2023/06/16 04:22:58;;;;;;;14.50;9.73;;;;;;;;;;5020712;28;20495;-72
2023/06/16 04:25:26;;;;;;;14.18;9.13;;;;;;;;;;5005981;28;20051;-72
2023/06/16 04:27:54;;;;;;;17.50;10.18;;;;;;;;;;5007074;28;20088;-72
2023/06/16 04:30:24;;;;;;;14.70;9.05;;;;;;;;;;5022863;28;20064;-71
2023/06/16 04:32:54;;;;;;;16.83;9.85;;;;;;;;;;5017137;28;20041;-72
2023/06/16 04:35:22;;;;;;;14.90;9.73;;;;;;;;;;5024109;28;20044;-71
2023/06/16 04:37:50;;;;;;;14.32;10.40;;;;;;;;;;5010527;28;20346;-71
2023/06/16 04:40:18;;;;;;;17.20;10.02;;;;;;;;;;5027510;28;20053;-72
2023/06/16 04:42:47;;;;;;;16.83;10.18;;;;;;;;;;5018169;28;20037;-72
2023/06/16 04:45:14;;;;;;;14.32;10.07;;;;;;;;;;5024635;28;20047;-72
2023/06/16 04:47:44;;;;;;;13.43;9.77;;;;;;;;;;5008509;28;20083;-73
2023/06/16 04:50:15;;;;;;;14.13;9.93;;;;;;;;;;5031066;28;20041;-71
2023/06/16 04:52:44;;;;;;;14.95;9.88;;;;;;;;;;5011579;28;20056;-70
2023/06/16 04:55:12;;;;;;;16.08;10.05;;;;;;;;;;5022782;28;20072;-71
2023/06/16 04:57:40;;;;;;;14.43;10.10;;;;;;;;;;5014906;28;20029;-71
2023/06/16 05:00:09;;;;;;;17.60;10.23;;;;;;;;;;5019907;28;20052;-64
2023/06/16 05:02:37;;;;;;;16.23;10.15;;;;;;;;;;5012129;28;20041;-71
2023/06/16 05:05:05;;;;;;;17.02;10.77;;;;;;;;;;5022503;28;20128;-71
2023/06/16 05:07:36;;;;;;;17.00;10.10;;;;;;;;;;5018868;28;20037;-71
2023/06/16 05:10:04;;;;;;;16.80;10.80;;;;;;;;;;5022835;28;20045;-70
2023/06/16 05:12:32;;;;;;;16.40;10.70;;;;;;;;;;5011183;28;20448;-71
2023/06/16 05:15:02;;;;;;;15.98;10.38;;;;;;;;;;5018842;28;20072;-71
2023/06/16 05:17:30;;;;;;;14.80;10.25;;;;;;;;;;5025721;28;20049;-70
2023/06/16 05:19:59;;;;;;;17.35;10.52;;;;;;;;;;5015858;28;20089;-70
2023/06/16 05:22:31;;;;;;;15.60;10.18;;;;;;;;;;5016480;28;20060;-71
2023/06/16 05:25:00;;;;;;;14.77;10.47;;;;;;;;;;5021951;28;20051;-71
2023/06/16 05:27:28;;;;;;;13.88;10.63;;;;;;;;;;5017282;28;20242;-69
2023/06/16 05:29:56;;;;;;;17.48;11.40;;;;;;;;;;5018329;28;20458;-71
2023/06/16 05:32:27;;;;;;;18.63;11.00;;;;;;;;;;5010617;28;20120;-70
2023/06/16 05:34:55;;;;;;;22.65;15.43;;;;;;;;;;5007565;28;20121;-70
2023/06/16 05:37:22;;;;;;;27.73;17.50;;;;;;;;;;5011804;28;20049;-71
2023/06/16 05:39:50;;;;;;;19.48;14.43;;;;;;;;;;5012600;28;20533;-71
2023/06/16 05:42:24;;;;;;;21.27;15.00;;;;;;;;;;5023549;28;20049;-70
2023/06/16 05:44:52;;;;;;;20.38;13.73;;;;;;;;;;5013350;28;20386;-71
2023/06/16 05:47:20;;;;;;;23.02;15.23;;;;;;;;;;5015516;28;20044;-71
2023/06/16 05:49:48;;;;;;;19.40;12.53;;;;;;;;;;5026531;28;20052;-62
2023/06/16 05:52:15;;;;;;;18.83;13.45;;;;;;;;;;5005406;28;20128;-68
2023/06/16 05:54:43;;;;;;;19.88;14.10;;;;;;;;;;5026337;28;20127;-70
2023/06/16 05:57:11;;;;;;;18.75;12.02;;;;;;;;;;5017280;28;20060;-71
2023/06/16 05:59:40;;;;;;;16.98;11.80;;;;;;;;;;5028057;28;20037;-71
2023/06/16 06:02:09;;;;;;;19.03;11.40;;;;;;;;;;5008222;28;20041;-70
2023/06/16 06:04:40;;;;;;;17.38;11.07;;;;;;;;;;5026082;28;20044;-71
2023/06/16 06:07:08;;;;;;;13.27;10.20;;;;;;;;;;5016550;28;20413;-67
2023/06/16 06:09:36;;;;;;;14.50;9.80;;;;;;;;;;5014585;28;20479;-71
2023/06/16 06:12:04;;;;;;;13.32;9.30;;;;;;;;;;5018472;28;20037;-70
2023/06/16 06:14:31;;;;;;;13.97;9.37;;;;;;;;;;5016219;28;20037;-71
2023/06/16 06:17:01;;;;;;;13.25;9.20;;;;;;;;;;5020089;28;20225;-71
2023/06/16 06:19:29;;;;;;;13.55;8.70;;;;;;;;;;5025016;28;20045;-70
2023/06/16 06:21:56;;;;;;;12.35;8.70;;;;;;;;;;5007519;28;20047;-70
2023/06/16 06:24:24;;;;;;;12.77;8.02;;;;;;;;;;5012916;28;20037;-70
2023/06/16 06:26:52;;;;;;;12.63;8.03;;;;;;;;;;5010346;28;20483;-70
2023/06/16 06:29:20;;;;;;;14.40;8.18;;;;;;;;;;5017364;28;20187;-70
2023/06/16 06:31:47;;;;;;;10.93;7.50;;;;;;;;;;4997660;28;20057;-71
2023/06/16 06:34:16;;;;;;;14.38;6.78;;;;;;;;;;5016416;28;20068;-71
2023/06/16 06:36:47;;;;;;;12.65;6.97;;;;;;;;;;5018584;28;20053;-70
2023/06/16 06:39:15;;;;;;;12.07;6.60;;;;;;;;;;5009337;28;20769;-71
2023/06/16 06:41:42;;;;;;;9.50;6.15;;;;;;;;;;5017059;28;20034;-71
2023/06/16 06:44:10;;;;;;;13.48;6.20;;;;;;;;;;4996515;28;20049;-71
2023/06/16 06:46:38;;;;;;;14.70;6.72;;;;;;;;;;5026130;28;20410;-70
2023/06/16 06:49:06;;;;;;;10.73;5.70;;;;;;;;;;4999015;28;20045;-70
2023/06/16 06:51:35;;;;;;;12.27;6.13;;;;;;;;;;5019425;28;20216;-71
2023/06/16 06:54:03;;;;;;;10.25;6.03;;;;;;;;;;5014004;28;20056;-71
2023/06/16 06:56:31;;;;;;;11.23;5.43;;;;;;;;;;5024198;28;20043;-71
2023/06/16 06:58:59;;;;;;;10.00;5.28;;;;;;;;;;5011030;28;20241;-71
2023/06/16 07:01:27;;;;;;;9.60;5.10;;;;;;;;;;5023752;28;20051;-71
2023/06/16 07:03:55;;;;;;;11.30;6.00;;;;;;;;;;5000677;28;20041;-71
2023/06/16 07:06:22;;;;;;;11.15;6.25;;;;;;;;;;5029522;28;20127;-71
2023/06/16 07:08:52;;;;;;;13.52;6.55;;;;;;;;;;5011394;28;20377;-70
2023/06/16 07:11:20;;;;;;;15.32;6.45;;;;;;;;;;5010137;28;20547;-71
2023/06/16 07:13:47;;;;;;;16.70;7.97;;;;;;;;;;5010905;28;20391;-71
2023/06/16 07:16:15;;;;;;;15.33;7.73;;;;;;;;;;5015401;28;20744;-71
2023/06/16 07:18:43;;;;;;;18.52;8.05;;;;;;;;;;5012860;28;20085;-71
2023/06/16 07:21:11;;;;;;;14.02;7.50;;;;;;;;;;5005115;28;20115;-71
2023/06/16 07:23:39;;;;;;;13.95;6.55;;;;;;;;;;5011636;28;20033;-71
2023/06/16 07:26:08;;;;;;;13.45;7.50;;;;;;;;;;5020505;28;20059;-70
2023/06/16 07:28:35;;;;;;;12.13;6.13;;;;;;;;;;5009647;28;20037;-69
2023/06/16 07:31:03;;;;;;;12.43;5.45;;;;;;;;;;5024780;28;20496;-70
2023/06/16 07:33:34;;;;;;;11.40;5.30;;;;;;;;;;5019007;28;20391;-69
2023/06/16 07:36:02;;;;;;;12.60;5.25;;;;;;;;;;5018266;28;20033;-69
2023/06/16 07:38:32;;;;;;;12.95;5.75;;;;;;;;;;5020861;28;20131;-71
2023/06/16 07:41:02;;;;;;;7.73;4.83;;;;;;;;;;5016863;28;20056;-69
2023/06/16 07:43:31;;;;;;;10.13;4.80;;;;;;;;;;5005434;28;20502;-69
2023/06/16 07:46:01;;;;;;;9.45;4.78;;;;;;;;;;5015911;28;20131;-69
2023/06/16 07:48:29;;;;;;;8.90;4.97;;;;;;;;;;5011741;28;20037;-68
2023/06/16 07:50:56;;;;;;;10.05;4.55;;;;;;;;;;4998273;28;21947;-69
2023/06/16 07:53:24;;;;;;;8.33;4.30;;;;;;;;;;5027933;28;20546;-68
2023/06/16 07:55:52;;;;;;;11.02;4.32;;;;;;;;;;4998820;28;20045;-68
2023/06/16 07:58:22;;;;;;;10.45;4.95;;;;;;;;;;5036403;28;20052;-67
2023/06/16 08:00:52;;;;;;;9.73;4.03;;;;;;;;;;5015083;28;20064;-68
2023/06/16 08:03:19;;;;;;;10.38;4.22;;;;;;;;;;5028426;28;20051;-69
2023/06/16 08:05:48;;;;;;;10.13;4.37;;;;;;;;;;5024802;28;20834;-68
2023/06/16 08:08:17;;;;;;;7.38;4.32;;;;;;;;;;5014348;28;20114;-69
2023/06/16 08:10:45;;;;;;;8.93;4.32;;;;;;;;;;5019865;28;20059;-70
2023/06/16 08:13:13;;;;;;;8.35;3.83;;;;;;;;;;5025244;28;20037;-69
2023/06/16 08:15:40;;;;;;;9.02;3.95;;;;;;;;;;5029425;28;20041;-69
2023/06/16 08:18:10;;;;;;;8.73;4.33;;;;;;;;;;4981785;28;22971;-66
2023/06/16 08:20:37;;;;;;;9.80;4.30;;;;;;;;;;4999618;28;20065;-69
2023/06/16 08:23:05;;;;;;;7.55;3.85;;;;;;;;;;4984778;28;20696;-70
2023/06/16 08:25:33;;;;;;;8.70;4.43;;;;;;;;;;4991868;28;20801;-70
2023/06/16 08:28:03;;;;;;;7.72;3.60;;;;;;;;;;4990305;28;20072;-70
2023/06/16 08:30:30;;;;;;;10.07;3.90;;;;;;;;;;4983496;28;20041;-69
2023/06/16 08:32:58;;;;;;;8.73;4.03;;;;;;;;;;5014081;28;20045;-69
2023/06/16 08:35:29;;;;;;;8.02;3.95;;;;;;;;;;5029494;28;20037;-69
2023/06/16 08:37:57;;;;;;;7.15;3.80;;;;;;;;;;5024437;28;20086;-69
2023/06/16 08:40:25;;;;;;;7.68;3.63;;;;;;;;;;5024340;28;20056;-69
2023/06/16 08:42:54;;;;;;;8.77;3.80;;;;;;;;;;5024488;28;20033;-69
2023/06/16 08:45:21;;;;;;;10.40;3.90;;;;;;;;;;5031138;28;20809;-69
2023/06/16 08:47:50;;;;;;;7.57;4.15;;;;;;;;;;5020542;28;20045;-70
2023/06/16 08:50:22;;;;;;;9.68;4.10;;;;;;;;;;5025648;28;20462;-70
2023/06/16 08:52:52;;;;;;;9.55;3.80;;;;;;;;;;5023588;28;20064;-70
2023/06/16 08:55:20;;;;;;;7.93;4.37;;;;;;;;;;5028034;28;20045;-70
2023/06/16 08:57:52;;;;;;;7.82;3.85;;;;;;;;;;5017218;28;20281;-70
2023/06/16 09:00:21;;;;;;;7.47;4.18;;;;;;;;;;5016796;28;20128;-70
2023/06/16 09:02:50;;;;;;;6.97;4.07;;;;;;;;;;5020707;28;20041;-69
2023/06/16 09:05:19;;;;;;;7.00;3.30;;;;;;;;;;5015589;28;20033;-70
2023/06/16 09:07:49;;;;;;;6.30;3.20;;;;;;;;;;5032690;28;20049;-69
2023/06/16 09:10:19;;;;;;;8.85;4.10;;;;;;;;;;5017906;28;20056;-70
2023/06/16 09:12:51;;;;;;;10.73;3.92;;;;;;;;;;5014289;28;20284;-70
2023/06/16 09:15:19;;;;;;;7.63;4.15;;;;;;;;;;5012108;28;20547;-71
2023/06/16 09:17:48;;;;;;;6.35;2.95;;;;;;;;;;4980581;28;20048;-70
2023/06/16 09:20:28;;;;;;;7.17;3.87;;;;;;;;;;5005445;28;20329;-70
2023/06/16 09:22:59;;;;;;;6.18;3.65;;;;;;;;;;5003384;28;20037;-71
2023/06/16 09:25:32;;;;;;;8.15;3.60;;;;;;;;;;5019321;28;20045;-71
2023/06/16 09:28:01;;;;;;;7.18;4.10;;;;;;;;;;5013075;28;20431;-70
2023/06/16 09:30:30;;;;;;;7.55;4.10;;;;;;;;;;5025511;28;20047;-70
2023/06/16 09:32:58;;;;;;;10.50;4.73;;;;;;;;;;5003289;28;20041;-69
2023/06/16 09:35:27;;;;;;;6.25;4.00;;;;;;;;;;5019593;28;20689;-69
2023/06/16 09:37:56;;;;;;;9.55;4.47;;;;;;;;;;5004228;28;20038;-70
2023/06/16 09:40:26;;;;;;;8.00;4.55;;;;;;;;;;5023828;28;20055;-70
2023/06/16 09:42:57;;;;;;;7.43;4.45;;;;;;;;;;5016182;28;20048;-70
2023/06/16 09:45:27;;;;;;;7.67;4.20;;;;;;;;;;5009820;28;20767;-70
2023/06/16 09:47:55;;;;;;;6.82;4.47;;;;;;;;;;5022989;28;20140;-70
2023/06/16 09:50:25;;;;;;;9.45;4.40;;;;;;;;;;5005451;28;20486;-70
2023/06/16 09:52:54;;;;;;;8.85;4.05;;;;;;;;;;5026390;28;20410;-71
2023/06/16 09:55:26;;;;;;;9.02;3.95;;;;;;;;;;5029784;28;20366;-70
2023/06/16 09:57:58;;;;;;;7.80;4.17;;;;;;;;;;5032266;28;20041;-71
2023/06/16 10:00:26;;;;;;;7.03;4.10;;;;;;;;;;5014437;28;20040;-70
2023/06/16 10:02:55;;;;;;;8.93;4.53;;;;;;;;;;5022743;28;20132;-70
2023/06/16 10:05:25;;;;;;;7.88;4.20;;;;;;;;;;5011102;28;20510;-71
2023/06/16 10:07:56;;;;;;;10.70;4.57;;;;;;;;;;5018003;28;20233;-70
2023/06/16 10:10:27;;;;;;;11.77;3.93;;;;;;;;;;5019342;28;20051;-70
2023/06/16 10:12:55;;;;;;;8.52;4.15;;;;;;;;;;5014740;28;20533;-71
2023/06/16 10:15:25;;;;;;;11.90;4.50;;;;;;;;;;5029966;28;20045;-70
2023/06/16 10:17:54;;;;;;;8.00;4.15;;;;;;;;;;5016251;28;20516;-67
2023/06/16 10:20:23;;;;;;;7.50;4.10;;;;;;;;;;5028212;28;20057;-67
2023/06/16 10:22:51;;;;;;;12.27;4.40;;;;;;;;;;5005935;28;20457;-68
2023/06/16 10:25:20;;;;;;;9.88;4.47;;;;;;;;;;5023415;28;20037;-67
2023/06/16 10:27:48;;;;;;;9.90;4.13;;;;;;;;;;5022607;28;20037;-66
2023/06/16 10:30:19;;;;;;;7.70;4.00;;;;;;;;;;5020926;28;20040;-67
2023/06/16 10:32:53;;;;;;;6.90;3.60;;;;;;;;;;5027604;28;20033;-67
2023/06/16 10:35:21;;;;;;;8.93;4.60;;;;;;;;;;5018100;28;20395;-67
2023/06/16 10:37:50;;;;;;;10.27;4.30;;;;;;;;;;5022484;28;20072;-68
2023/06/16 10:40:19;;;;;;;6.75;3.85;;;;;;;;;;5016110;28;20063;-69
2023/06/16 10:42:47;;;;;;;7.05;4.50;;;;;;;;;;5017880;28;20132;-68
2023/06/16 10:45:26;;;;;;;8.00;4.35;;;;;;;;;;5027539;28;20042;-69
2023/06/16 10:47:59;;;;;;;7.07;4.47;;;;;;;;;;5018371;28;20040;-68
2023/06/16 10:50:31;;;;;;;7.65;4.60;;;;;;;;;;5011349;28;20048;-68
2023/06/16 10:53:09;;;;;;;7.75;4.30;;;;;;;;;;5023025;28;20037;-68
2023/06/16 10:55:39;;;;;;;7.35;4.60;;;;;;;;;;5020024;28;20127;-68
2023/06/16 10:58:23;;;;;;;7.97;4.50;;;;;;;;;;5028275;28;20033;-69
2023/06/16 11:00:58;;;;;;;6.83;4.37;;;;;;;;;;5016901;28;20329;-68
2023/06/16 11:03:35;;;;;;;7.47;4.10;;;;;;;;;;5020224;28;20037;-70
2023/06/16 11:06:04;;;;;;;7.13;3.72;;;;;;;;;;5018205;28;20037;-69
2023/06/16 11:08:48;;;;;;;8.98;3.65;;;;;;;;;;5018419;28;20041;-70
2023/06/16 11:11:16;;;;;;;7.53;3.85;;;;;;;;;;5015201;28;20053;-70
2023/06/16 11:13:45;;;;;;;7.93;4.17;;;;;;;;;;5016515;28;20122;-70
2023/06/16 11:16:13;;;;;;;6.68;4.10;;;;;;;;;;5017728;28;20045;-71
2023/06/16 11:18:43;;;;;;;8.38;4.18;;;;;;;;;;5031677;28;20482;-71
2023/06/16 11:21:11;;;;;;;10.18;4.47;;;;;;;;;;5018147;28;20037;-70
2023/06/16 11:23:40;;;;;;;6.82;4.22;;;;;;;;;;5020741;28;20480;-70
2023/06/16 11:26:09;;;;;;;8.40;4.03;;;;;;;;;;5019170;28;20036;-61
2023/06/16 11:28:37;;;;;;;11.20;4.60;;;;;;;;;;5022600;28;20060;-69
2023/06/16 11:31:06;;;;;;;7.63;3.85;;;;;;;;;;5019164;28;20048;-70
2023/06/16 11:33:35;;;;;;;7.30;4.38;;;;;;;;;;5022468;28;20060;-70
2023/06/16 11:36:17;;;;;;;7.60;4.00;;;;;;;;;;5004356;28;20044;-68
2023/06/16 11:38:46;;;;;;;7.47;4.40;;;;;;;;;;5025987;28;20059;-68
2023/06/16 11:41:17;;;;;;;8.48;4.40;;;;;;;;;;5008339;28;20680;-68
2023/06/16 11:43:45;;;;;;;6.55;4.25;;;;;;;;;;5029022;28;20060;-68
2023/06/16 11:46:13;;;;;;;9.43;4.25;;;;;;;;;;5003584;28;20048;-68
2023/06/16 11:48:41;;;;;;;6.75;4.47;;;;;;;;;;5025553;28;20449;-68
2023/06/16 11:51:09;;;;;;;7.53;4.23;;;;;;;;;;5024025;28;20364;-68
2023/06/16 11:53:39;;;;;;;8.63;4.20;;;;;;;;;;5003749;28;20578;-68
2023/06/16 11:56:07;;;;;;;7.28;3.72;;;;;;;;;;5031071;28;20421;-68
2023/06/16 11:58:36;;;;;;;7.78;3.83;;;;;;;;;;5017551;28;20045;-69
2023/06/16 12:01:04;;;;;;;6.35;3.72;;;;;;;;;;5024741;28;20037;-69
2023/06/16 12:03:34;;;;;;;6.43;3.90;;;;;;;;;;5028523;28;20049;-68
2023/06/16 12:06:03;;;;;;;7.18;4.30;;;;;;;;;;5020168;28;20033;-68
2023/06/16 12:08:40;;;;;;;7.38;3.97;;;;;;;;;;5025167;28;20041;-69
2023/06/16 12:11:09;;;;;;;9.38;4.35;;;;;;;;;;5019950;28;20098;-63
2023/06/16 12:13:37;;;;;;;7.03;3.65;;;;;;;;;;5025561;28;20052;-69
2023/06/16 12:16:05;;;;;;;7.13;3.80;;;;;;;;;;5010355;28;20033;-68
2023/06/16 12:18:33;;;;;;;6.90;4.05;;;;;;;;;;5025883;28;20136;-69
2023/06/16 12:21:16;;;;;;;7.88;4.15;;;;;;;;;;4999385;28;20591;-70
2023/06/16 12:23:49;;;;;;;7.25;4.05;;;;;;;;;;5015432;28;20119;-70
2023/06/16 12:26:27;;;;;;;6.93;4.00;;;;;;;;;;5006019;28;20570;-69
2023/06/16 12:28:55;;;;;;;6.73;3.23;;;;;;;;;;5009188;28;20041;-69
2023/06/16 12:31:28;;;;;;;8.35;3.85;;;;;;;;;;5027456;28;20052;-69
2023/06/16 12:33:57;;;;;;;6.95;3.95;;;;;;;;;;5020564;28;20102;-69
2023/06/16 12:36:25;;;;;;;6.80;4.10;;;;;;;;;;5012391;28;20039;-69
2023/06/16 12:38:55;;;;;;;8.63;4.40;;;;;;;;;;5023379;28;20041;-68
2023/06/16 12:41:26;;;;;;;7.23;3.33;;;;;;;;;;5004432;28;20520;-69
2023/06/16 12:43:54;;;;;;;6.70;3.97;;;;;;;;;;5024320;28;20044;-69
2023/06/16 12:46:24;;;;;;;6.97;4.22;;;;;;;;;;5020776;28;20384;-68
2023/06/16 12:48:53;;;;;;;6.78;3.97;;;;;;;;;;5003902;28;20045;-69
2023/06/16 12:51:22;;;;;;;5.45;2.63;;;;;;;;;;5014650;28;20362;-69
2023/06/16 12:53:53;;;;;;;6.00;3.77;;;;;;;;;;5028009;28;20059;-68
2023/06/16 12:56:22;;;;;;;8.32;4.50;;;;;;;;;;5027074;28;20041;-71
2023/06/16 12:58:50;;;;;;;5.28;3.08;;;;;;;;;;5012445;28;20041;-69
2023/06/16 13:01:17;;;;;;;5.65;2.70;;;;;;;;;;5024219;28;20669;-69
2023/06/16 13:03:48;;;;;;;5.90;2.33;;;;;;;;;;5020187;28;20095;-68
2023/06/16 13:06:18;;;;;;;7.90;4.60;;;;;;;;;;5021399;28;20060;-68
2023/06/16 13:08:48;;;;;;;7.13;3.53;;;;;;;;;;5017409;28;20239;-68
2023/06/16 13:11:15;;;;;;;7.70;4.20;;;;;;;;;;5017997;28;20044;-69
2023/06/16 13:13:45;;;;;;;6.95;3.58;;;;;;;;;;5022759;28;20057;-68
2023/06/16 13:16:14;;;;;;;8.18;3.60;;;;;;;;;;5018163;28;20044;-67
2023/06/16 13:18:42;;;;;;;10.80;4.73;;;;;;;;;;5022492;28;20114;-67
2023/06/16 13:21:10;;;;;;;7.38;4.80;;;;;;;;;;5014694;28;20049;-68
2023/06/16 13:23:43;;;;;;;5.38;3.45;;;;;;;;;;5022136;28;20064;-67
2023/06/16 13:26:11;;;;;;;5.45;3.92;;;;;;;;;;5011444;28;20123;-70
2023/06/16 13:28:40;;;;;;;5.57;3.35;;;;;;;;;;5009219;28;20045;-69
2023/06/16 13:31:10;;;;;;;6.03;3.87;;;;;;;;;;5004188;28;20044;-69
2023/06/16 13:33:42;;;;;;;4.90;2.55;;;;;;;;;;5023511;28;20049;-68
2023/06/16 13:36:11;;;;;;;7.45;3.08;;;;;;;;;;5014160;28;20099;-67
2023/06/16 13:38:39;;;;;;;6.45;4.65;;;;;;;;;;5024405;28;20052;-69
2023/06/16 13:41:07;;;;;;;5.53;3.72;;;;;;;;;;5019164;28;20053;-69
2023/06/16 13:43:35;;;;;;;4.80;3.00;;;;;;;;;;5023733;28;20040;-69
2023/06/16 13:46:02;;;;;;;7.60;4.30;;;;;;;;;;5013296;28;20070;-64
2023/06/16 13:48:32;;;;;;;7.15;3.70;;;;;;;;;;5026392;28;20044;-69
2023/06/16 13:50:59;;;;;;;6.00;2.28;;;;;;;;;;5015177;28;20035;-69
2023/06/16 13:53:27;;;;;;;7.82;3.42;;;;;;;;;;5030231;28;20140;-69
2023/06/16 13:55:55;;;;;;;6.57;3.27;;;;;;;;;;5015975;28;20048;-70
2023/06/16 13:58:23;;;;;;;4.30;2.08;;;;;;;;;;5029788;28;20033;-69
2023/06/16 14:00:51;;;;;;;6.78;3.58;;;;;;;;;;5001477;28;20308;-69
2023/06/16 14:03:19;;;;;;;6.40;3.33;;;;;;;;;;5030376;28;20036;-69
2023/06/16 14:05:48;;;;;;;10.50;4.15;;;;;;;;;;5023205;28;20060;-69
2023/06/16 14:08:16;;;;;;;8.60;4.60;;;;;;;;;;5028262;28;20059;-70
2023/06/16 14:10:44;;;;;;;6.97;3.85;;;;;;;;;;5008729;28;20052;-70
2023/06/16 14:13:12;;;;;;;5.40;3.05;;;;;;;;;;5031558;28;20045;-70
2023/06/16 14:15:39;;;;;;;7.18;3.70;;;;;;;;;;5018142;28;20394;-70
2023/06/16 14:18:07;;;;;;;7.68;4.65;;;;;;;;;;5027375;28;20057;-71
2023/06/16 14:20:35;;;;;;;8.10;4.30;;;;;;;;;;5018485;28;20041;-71
2023/06/16 14:23:07;;;;;;;6.63;4.20;;;;;;;;;;5020527;28;20116;-71
2023/06/16 14:25:35;;;;;;;7.15;3.83;;;;;;;;;;5027475;28;20047;-71
2023/06/16 14:28:03;;;;;;;8.25;4.55;;;;;;;;;;5021767;28;20059;-70
2023/06/16 14:30:30;;;;;;;9.10;4.22;;;;;;;;;;5027519;28;20037;-70
2023/06/16 14:32:58;;;;;;;5.50;3.67;;;;;;;;;;5021382;28;20589;-69
2023/06/16 14:35:26;;;;;;;8.65;4.93;;;;;;;;;;5008760;28;20435;-69
2023/06/16 14:37:54;;;;;;;7.88;3.30;;;;;;;;;;5015146;28;20548;-70
2023/06/16 14:40:23;;;;;;;5.95;2.70;;;;;;;;;;5027849;28;20061;-70
2023/06/16 14:42:51;;;;;;;11.98;4.40;;;;;;;;;;5018411;28;20045;-70
2023/06/16 14:45:20;;;;;;;6.67;3.93;;;;;;;;;;5014189;28;20080;-70
2023/06/16 14:47:48;;;;;;;5.95;3.42;;;;;;;;;;5018403;28;20052;-61